Time;durP1;ratioP1;P1;durP2;ratioP2;P2;SDS_P1;SDS_P2;PMS_P1;PMS_P2;Temp;Humidity;BMP_temperature;BMP_pressure;BME280_temperature;BME280_humidity;BME280_pressure;Samples;Min_cycle;Max_cycle;Signal;HPM_P1;HPM_P2
2022/01/09 00:00:11;;;;;;;;;;;;;;;10.31;73.83;98997.06;5062884;28;20283;-82
2022/01/09 00:02:36;;;;;;;;;;;;;;;10.61;73.08;99015.50;5064400;28;19917;-84
2022/01/09 00:05:02;;;;;;;;;;;;;;;10.64;72.34;99012.56;5081001;28;19924;-83
2022/01/09 00:07:27;;;;;;;;;;;;;;;10.70;71.87;99013.06;5062434;28;19921;-82
2022/01/09 00:09:52;;;;;;;;;;;;;;;10.77;71.65;99019.72;5064196;28;20377;-82
2022/01/09 00:12:18;;;;;;;;;;;;;;;10.73;71.66;99018.22;5081213;28;19921;-82
2022/01/09 00:14:43;;;;;;;;;;;;;;;10.58;72.12;99031.09;5079960;28;19975;-82
2022/01/09 00:17:11;;;;;;;;;;;;;;;10.70;70.62;99010.34;5062245;28;20016;-84
2022/01/09 00:19:36;;;;;;;;;;;;;;;10.62;70.84;99038.84;5080641;28;19923;-82
2022/01/09 00:22:02;;;;;;;;;;;;;;;10.54;70.27;99049.41;5062290;28;19917;-83
2022/01/09 00:24:27;;;;;;;;;;;;;;;10.46;70.62;99060.81;5080421;28;19916;-81
2022/01/09 00:26:52;;;;;;;;;;;;;;;10.49;70.59;99054.28;5065744;28;19924;-83
2022/01/09 00:29:17;;;;;;;;;;;;;;;10.70;70.13;99076.13;5065937;28;19916;-82
2022/01/09 00:31:43;;;;;;;;;;;;;;;10.49;70.19;99065.09;5064903;28;19921;-79
2022/01/09 00:34:08;;;;;;;;;;;;;;;10.66;69.27;99068.34;5083265;28;19921;-80
2022/01/09 00:36:33;;;;;;;;;;;;;;;11.21;67.98;99080.31;5066122;28;19917;-80
2022/01/09 00:38:58;;;;;;;;;;;;;;;10.56;68.65;99077.19;5083798;28;19917;-80
2022/01/09 00:41:24;;;;;;;;;;;;;;;10.35;71.08;99095.88;5062034;28;19921;-80
2022/01/09 00:43:50;;;;;;;;;;;;;;;10.54;69.11;99087.25;5062569;28;19917;-82
2022/01/09 00:46:15;;;;;;;;;;;;;;;10.61;68.55;99109.28;5061999;28;20383;-81
2022/01/09 00:48:41;;;;;;;;;;;;;;;10.49;68.91;99111.06;5061075;28;19939;-81
2022/01/09 00:51:07;;;;;;;;;;;;;;;10.55;68.90;99129.56;5061981;28;19917;-82
2022/01/09 00:53:32;;;;;;;;;;;;;;;10.52;68.17;99118.94;5059992;28;20338;-83
2022/01/09 00:55:57;;;;;;;;;;;;;;;10.66;67.38;99125.16;5060151;28;19972;-80
2022/01/09 00:58:23;;;;;;;;;;;;;;;10.77;66.65;99117.94;5060679;28;20382;-83
2022/01/09 01:00:48;;;;;;;;;;;;;;;10.60;67.75;99121.94;5059319;28;20401;-84
2022/01/09 01:03:13;;;;;;;;;;;;;;;10.64;66.69;99131.56;5060627;28;19931;-84
2022/01/09 01:05:38;;;;;;;;;;;;;;;10.70;67.58;99134.75;5058738;28;19924;-81
2022/01/09 01:08:04;;;;;;;;;;;;;;;10.81;67.29;99142.94;5061206;28;19917;-82
2022/01/09 01:10:29;;;;;;;;;;;;;;;10.57;67.25;99151.91;5058926;28;19970;-82
2022/01/09 01:12:54;;;;;;;;;;;;;;;11.08;65.65;99152.59;5058692;28;19917;-82
2022/01/09 01:15:20;;;;;;;;;;;;;;;11.17;66.01;99162.72;5058683;28;19917;-82
2022/01/09 01:17:45;;;;;;;;;;;;;;;10.74;66.55;99169.56;5058353;28;19921;-82
2022/01/09 01:20:11;;;;;;;;;;;;;;;10.62;67.05;99159.69;5058302;28;19917;-81
2022/01/09 01:22:37;;;;;;;;;;;;;;;10.85;67.33;99174.16;5058838;28;19916;-82
2022/01/09 01:25:04;;;;;;;;;;;;;;;10.85;65.70;99178.72;5060272;28;19927;-83
2022/01/09 01:27:29;;;;;;;;;;;;;;;10.20;67.16;99184.31;5064102;28;20286;-82
2022/01/09 01:29:54;;;;;;;;;;;;;;;10.72;65.47;99205.81;5064357;28;19918;-84
2022/01/09 01:32:20;;;;;;;;;;;;;;;10.67;65.35;99203.47;5059900;28;19936;-82
2022/01/09 01:34:45;;;;;;;;;;;;;;;10.69;65.75;99206.06;5058745;28;20268;-83
2022/01/09 01:37:10;;;;;;;;;;;;;;;10.63;65.90;99216.34;5057894;28;19962;-82
2022/01/09 01:39:35;;;;;;;;;;;;;;;10.79;65.90;99221.50;5059624;28;19921;-82
2022/01/09 01:42:01;;;;;;;;;;;;;;;10.40;66.80;99219.88;5060584;28;19921;-81
2022/01/09 01:44:37;;;;;;;;;;;;;;;10.97;65.25;99218.38;5060339;28;19916;-82
2022/01/09 01:47:02;;;;;;;;;;;;;;;10.16;67.02;99226.09;5061338;28;19916;-82
2022/01/09 01:49:28;;;;;;;;;;;;;;;10.51;66.38;99255.13;5060846;28;20398;-81
2022/01/09 01:51:53;;;;;;;;;;;;;;;10.50;66.10;99249.84;5059513;28;19916;-82
2022/01/09 01:54:20;;;;;;;;;;;;;;;10.96;64.26;99260.81;5061840;28;19923;-81
2022/01/09 01:56:46;;;;;;;;;;;;;;;11.29;63.23;99263.78;5060230;28;19917;-82
2022/01/09 01:59:11;;;;;;;;;;;;;;;10.91;62.89;99262.97;5077755;28;19921;-82
2022/01/09 02:01:37;;;;;;;;;;;;;;;11.03;63.81;99266.63;5061876;28;19966;-82
2022/01/09 02:04:03;;;;;;;;;;;;;;;10.93;62.80;99279.09;5060665;28;20002;-82
2022/01/09 02:06:28;;;;;;;;;;;;;;;11.11;63.61;99271.44;5061302;28;19928;-81
2022/01/09 02:08:54;;;;;;;;;;;;;;;10.82;64.13;99278.09;5062058;28;19917;-82
2022/01/09 02:11:19;;;;;;;;;;;;;;;10.68;64.17;99280.06;5060255;28;19964;-81
2022/01/09 02:13:46;;;;;;;;;;;;;;;10.31;65.60;99285.41;5059268;28;19917;-82
2022/01/09 02:16:17;;;;;;;;;;;;;;;10.88;63.86;99292.97;5059691;28;19948;-82
2022/01/09 02:18:43;;;;;;;;;;;;;;;10.39;64.92;99288.47;5059244;28;20298;-82
2022/01/09 02:21:10;;;;;;;;;;;;;;;10.66;63.64;99315.34;5059035;28;19917;-81
2022/01/09 02:23:37;;;;;;;;;;;;;;;10.57;64.10;99308.75;5058888;28;19920;-82
2022/01/09 02:26:02;;;;;;;;;;;;;;;10.39;64.44;99315.50;5058779;28;20367;-83
2022/01/09 02:28:29;;;;;;;;;;;;;;;10.67;63.86;99327.00;5058733;28;19917;-82
2022/01/09 02:30:55;;;;;;;;;;;;;;;10.50;63.88;99326.38;5060979;28;19920;-82
2022/01/09 02:33:20;;;;;;;;;;;;;;;10.42;63.94;99324.25;5075537;28;20366;-82
2022/01/09 02:35:48;;;;;;;;;;;;;;;9.86;65.14;99343.44;5059128;28;20402;-83
2022/01/09 02:38:13;;;;;;;;;;;;;;;10.19;63.96;99341.19;5058664;28;19924;-83
2022/01/09 02:40:38;;;;;;;;;;;;;;;11.07;61.84;99353.88;5059163;28;19917;-82
2022/01/09 02:43:04;;;;;;;;;;;;;;;10.27;63.69;99336.97;5077484;28;19921;-82
2022/01/09 02:45:29;;;;;;;;;;;;;;;10.48;62.78;99360.78;5079046;28;19920;-81
2022/01/09 02:47:56;;;;;;;;;;;;;;;10.24;63.66;99356.09;5061880;28;19970;-84
2022/01/09 02:52:50;;;;;;;;;;;;;;;10.32;61.90;99370.94;5081538;28;19923;-82
2022/01/09 02:55:16;;;;;;;;;;;;;;;10.62;62.28;99376.88;5080446;28;19925;-82
2022/01/09 02:57:42;;;;;;;;;;;;;;;10.64;61.38;99390.28;5061920;28;19913;-84
2022/01/09 03:00:09;;;;;;;;;;;;;;;11.23;60.54;99394.19;5062287;28;19920;-83
2022/01/09 03:02:34;;;;;;;;;;;;;;;10.81;61.41;99392.66;5062113;28;19917;-82
2022/01/09 03:05:00;;;;;;;;;;;;;;;10.53;62.67;99407.28;5062209;28;19923;-80
2022/01/09 03:07:25;;;;;;;;;;;;;;;10.72;61.96;99404.16;5061987;28;20011;-82
2022/01/09 03:09:50;;;;;;;;;;;;;;;10.87;61.75;99418.44;5080746;28;19923;-83
2022/01/09 03:12:15;;;;;;;;;;;;;;;11.15;59.77;99422.69;5062952;28;19921;-81
2022/01/09 03:14:41;;;;;;;;;;;;;;;10.75;60.68;99421.97;5063083;28;20378;-83
2022/01/09 03:17:06;;;;;;;;;;;;;;;10.38;61.70;99435.41;5062880;28;19912;-83
2022/01/09 03:19:31;;;;;;;;;;;;;;;10.33;61.76;99437.53;5080000;28;19991;-82
2022/01/09 03:21:56;;;;;;;;;;;;;;;10.46;61.44;99441.13;5079957;28;19916;-81
2022/01/09 03:24:22;;;;;;;;;;;;;;;10.93;60.41;99454.97;5061350;28;19916;-81
2022/01/09 03:26:47;;;;;;;;;;;;;;;10.83;60.65;99454.78;5080420;28;19917;-81
2022/01/09 03:29:12;;;;;;;;;;;;;;;10.04;61.88;99437.69;5063050;28;19966;-81
2022/01/09 03:31:37;;;;;;;;;;;;;;;10.79;60.19;99459.56;5062931;28;20022;-82
2022/01/09 03:34:03;;;;;;;;;;;;;;;10.75;59.89;99460.75;5081152;28;19927;-81
2022/01/09 03:36:28;;;;;;;;;;;;;;;10.42;60.68;99469.38;5063561;28;20386;-82
2022/01/09 03:38:53;;;;;;;;;;;;;;;10.28;61.10;99473.84;5062169;28;19994;-81
2022/01/09 03:41:18;;;;;;;;;;;;;;;10.72;59.00;99481.72;5061985;28;19928;-82
2022/01/09 03:43:44;;;;;;;;;;;;;;;10.01;60.90;99464.91;5062275;28;20011;-83
2022/01/09 03:46:09;;;;;;;;;;;;;;;10.34;60.39;99483.44;5080460;28;20364;-82
2022/01/09 03:48:34;;;;;;;;;;;;;;;10.61;58.37;99486.06;5063355;28;19917;-82
2022/01/09 03:51:01;;;;;;;;;;;;;;;10.69;58.50;99490.03;5062924;28;20336;-83
2022/01/09 03:53:27;;;;;;;;;;;;;;;10.35;59.98;99492.38;5063229;28;19923;-82
2022/01/09 03:55:52;;;;;;;;;;;;;;;10.26;60.73;99493.84;5062066;28;19916;-81
2022/01/09 03:58:17;;;;;;;;;;;;;;;10.40;60.47;99499.22;5062080;28;19994;-82
2022/01/09 04:00:42;;;;;;;;;;;;;;;10.27;60.65;99493.75;5062031;28;19929;-82
2022/01/09 04:03:08;;;;;;;;;;;;;;;10.42;59.80;99504.53;5080052;28;20370;-81
2022/01/09 04:05:33;;;;;;;;;;;;;;;10.32;59.20;99506.09;5062747;28;19978;-81
2022/01/09 04:07:58;;;;;;;;;;;;;;;10.20;59.85;99505.94;5062130;28;19992;-83
2022/01/09 04:10:28;;;;;;;;;;;;;;;10.33;59.29;99518.63;5079374;28;19960;-81
2022/01/09 04:12:59;;;;;;;;;;;;;;;10.41;59.00;99519.00;5061285;28;19917;-83
2022/01/09 04:15:25;;;;;;;;;;;;;;;10.14;60.61;99519.84;5061489;28;19917;-81
2022/01/09 04:20:15;;;;;;;;;;;;;;;10.11;60.45;99522.78;5081124;28;19967;-81
2022/01/09 04:22:40;;;;;;;;;;;;;;;10.40;59.39;99536.19;5063445;28;19955;-79
2022/01/09 04:25:07;;;;;;;;;;;;;;;10.00;60.20;99538.84;5063181;28;19920;-83
2022/01/09 04:27:33;;;;;;;;;;;;;;;10.39;59.49;99542.59;5063491;28;19916;-81
2022/01/09 04:29:58;;;;;;;;;;;;;;;10.89;57.75;99535.50;5062177;28;19924;-83
2022/01/09 04:32:24;;;;;;;;;;;;;;;10.50;58.17;99542.69;5080226;28;19924;-82
2022/01/09 04:34:50;;;;;;;;;;;;;;;10.34;58.61;99558.22;5062719;28;19923;-82
2022/01/09 04:37:15;;;;;;;;;;;;;;;10.64;58.42;99558.88;5062750;28;20010;-82
2022/01/09 04:39:41;;;;;;;;;;;;;;;10.64;57.56;99571.50;5081815;28;20010;-81
2022/01/09 04:42:07;;;;;;;;;;;;;;;9.91;59.13;99557.38;5061895;28;19920;-83
2022/01/09 04:44:32;;;;;;;;;;;;;;;10.26;58.25;99573.09;5062809;28;19963;-82
2022/01/09 04:47:03;;;;;;;;;;;;;;;10.72;56.58;99579.09;5079082;28;19920;-82
2022/01/09 04:49:35;;;;;;;;;;;;;;;10.61;57.23;99583.41;5060764;28;19917;-81
2022/01/09 04:52:03;;;;;;;;;;;;;;;10.02;58.36;99585.53;5079267;28;19924;-83
2022/01/09 04:54:28;;;;;;;;;;;;;;;9.92;58.54;99598.78;5079549;28;19966;-82
2022/01/09 04:56:53;;;;;;;;;;;;;;;10.34;57.41;99596.97;5062099;28;19916;-81
2022/01/09 04:59:19;;;;;;;;;;;;;;;10.06;58.71;99608.69;5080229;28;19916;-82
2022/01/09 05:01:45;;;;;;;;;;;;;;;10.00;58.96;99612.66;5080694;28;19931;-82
2022/01/09 05:04:10;;;;;;;;;;;;;;;9.90;59.41;99625.00;5062380;28;19921;-81
2022/01/09 05:06:36;;;;;;;;;;;;;;;10.21;58.93;99617.63;5061798;28;19991;-82
2022/01/09 05:09:02;;;;;;;;;;;;;;;9.76;60.93;99625.91;5061667;28;19923;-81
2022/01/09 05:11:27;;;;;;;;;;;;;;;10.44;59.53;99629.66;5062638;28;19917;-83
2022/01/09 05:13:52;;;;;;;;;;;;;;;10.20;60.10;99621.28;5065345;28;19923;-82
2022/01/09 05:16:18;;;;;;;;;;;;;;;10.14;59.39;99630.66;5083642;28;20003;-83
2022/01/09 05:18:52;;;;;;;;;;;;;;;10.19;59.62;99642.06;5083474;28;19938;-82
2022/01/09 05:21:18;;;;;;;;;;;;;;;10.71;56.32;99645.84;5064786;28;19983;-82
2022/01/09 05:23:43;;;;;;;;;;;;;;;10.85;56.27;99658.44;5064319;28;19958;-83
2022/01/09 05:26:09;;;;;;;;;;;;;;;10.31;58.22;99659.31;5063218;28;20293;-82
2022/01/09 05:28:34;;;;;;;;;;;;;;;9.94;58.60;99654.44;5063318;28;20014;-83
2022/01/09 05:30:59;;;;;;;;;;;;;;;9.94;58.63;99662.53;5063565;28;19928;-82
2022/01/09 05:33:25;;;;;;;;;;;;;;;10.40;57.81;99676.78;5064164;28;19917;-83
2022/01/09 05:35:50;;;;;;;;;;;;;;;10.00;58.72;99669.38;5063753;28;20045;-83
2022/01/09 05:38:18;;;;;;;;;;;;;;;9.63;62.67;99676.25;5082291;28;19917;-82
2022/01/09 05:40:43;;;;;;;;;;;;;;;9.97;62.59;99683.09;5063819;28;19923;-85
2022/01/09 05:43:08;;;;;;;;;;;;;;;10.31;61.47;99683.66;5062607;28;19921;-81
2022/01/09 05:45:34;;;;;;;;;;;;;;;10.57;61.39;99694.63;5080567;28;19970;-79
2022/01/09 05:48:00;;;;;;;;;;;;;;;10.69;60.11;99682.09;5064072;28;19916;-82
2022/01/09 05:50:26;;;;;;;;;;;;;;;10.35;61.14;99689.72;5064692;28;19925;-82
2022/01/09 05:52:51;;;;;;;;;;;;;;;10.25;60.67;99695.72;5065125;28;19924;-82
2022/01/09 05:55:16;;;;;;;;;;;;;;;10.88;59.66;99693.41;5063337;28;20428;-82
2022/01/09 05:57:41;;;;;;;;;;;;;;;11.23;58.40;99695.56;5080604;28;19927;-84
2022/01/09 06:00:07;;;;;;;;;;;;;;;10.98;58.53;99694.53;5063311;28;19923;-83
2022/01/09 06:02:32;;;;;;;;;;;;;;;10.94;58.98;99701.09;5082109;28;19981;-82
2022/01/09 06:04:57;;;;;;;;;;;;;;;10.71;60.96;99705.38;5064592;28;19955;-82
2022/01/09 06:07:23;;;;;;;;;;;;;;;10.81;59.68;99706.50;5065207;28;20019;-82
2022/01/09 06:09:48;;;;;;;;;;;;;;;10.32;60.85;99703.41;5065057;28;19916;-83
2022/01/09 06:12:13;;;;;;;;;;;;;;;10.40;59.96;99709.22;5064708;28;20366;-82
2022/01/09 06:14:38;;;;;;;;;;;;;;;10.15;60.07;99710.78;5063372;28;19924;-82
2022/01/09 06:17:04;;;;;;;;;;;;;;;10.19;60.39;99720.44;5065839;28;19916;-81
2022/01/09 06:19:29;;;;;;;;;;;;;;;9.97;61.07;99723.63;5083035;28;19923;-82
2022/01/09 06:21:54;;;;;;;;;;;;;;;9.76;61.98;99733.94;5063596;28;20002;-82
2022/01/09 06:24:19;;;;;;;;;;;;;;;9.89;60.62;99732.22;5080768;28;19916;-81
2022/01/09 06:26:45;;;;;;;;;;;;;;;10.63;58.81;99743.75;5080797;28;19917;-81
2022/01/09 06:29:10;;;;;;;;;;;;;;;10.26;58.97;99742.53;5062267;28;20015;-82
2022/01/09 06:31:35;;;;;;;;;;;;;;;10.53;58.71;99742.59;5081719;28;19984;-82
2022/01/09 06:34:01;;;;;;;;;;;;;;;10.18;59.18;99756.53;5065821;28;20420;-81
2022/01/09 06:36:26;;;;;;;;;;;;;;;9.99;59.85;99755.94;5062414;28;20011;-81
2022/01/09 06:38:51;;;;;;;;;;;;;;;10.32;58.91;99760.19;5061269;28;19923;-82
2022/01/09 06:41:16;;;;;;;;;;;;;;;10.08;59.18;99758.06;5060924;28;20448;-81
2022/01/09 06:43:44;;;;;;;;;;;;;;;9.96;59.38;99775.91;5061797;28;19916;-81
2022/01/09 06:46:09;;;;;;;;;;;;;;;9.53;60.95;99778.56;5061225;28;19917;-82
2022/01/09 06:48:41;;;;;;;;;;;;;;;9.51;61.41;99780.47;5080622;28;19955;-83
2022/01/09 06:51:06;;;;;;;;;;;;;;;9.10;62.59;99771.19;5080315;28;20019;-82
2022/01/09 06:53:32;;;;;;;;;;;;;;;9.18;64.58;99785.13;5062033;28;19994;-83
2022/01/09 06:55:57;;;;;;;;;;;;;;;9.97;62.47;99791.16;5061230;28;19916;-82
2022/01/09 06:58:22;;;;;;;;;;;;;;;10.46;60.50;99792.63;5062265;28;19917;-82
2022/01/09 07:00:48;;;;;;;;;;;;;;;10.39;60.11;99794.88;5062334;28;19924;-83
2022/01/09 07:03:13;;;;;;;;;;;;;;;10.16;60.90;99798.13;5062841;28;19917;-83
2022/01/09 07:05:38;;;;;;;;;;;;;;;10.41;59.65;99797.47;5061985;28;19927;-82
2022/01/09 07:08:04;;;;;;;;;;;;;;;10.52;59.28;99797.66;5060104;28;19916;-83
2022/01/09 07:10:29;;;;;;;;;;;;;;;10.46;58.40;99807.03;5059752;28;20007;-83
2022/01/09 07:12:54;;;;;;;;;;;;;;;10.41;58.62;99811.84;5059593;28;20015;-84
2022/01/09 07:15:20;;;;;;;;;;;;;;;10.97;56.62;99811.84;5076408;28;19916;-82
2022/01/09 07:17:47;;;;;;;;;;;;;;;11.01;56.65;99809.81;5058487;28;20103;-82
2022/01/09 07:20:12;;;;;;;;;;;;;;;10.80;56.32;99812.09;5059489;28;20321;-81
2022/01/09 07:22:39;;;;;;;;;;;;;;;11.21;55.26;99823.88;5079809;28;19916;-83
2022/01/09 07:25:05;;;;;;;;;;;;;;;10.79;55.30;99821.19;5062702;28;19916;-83
2022/01/09 07:27:31;;;;;;;;;;;;;;;10.57;56.23;99827.97;5063227;28;19962;-82
2022/01/09 07:29:57;;;;;;;;;;;;;;;10.39;56.76;99831.88;5062632;28;19927;-83
2022/01/09 07:32:23;;;;;;;;;;;;;;;10.31;57.28;99839.53;5060696;28;19924;-82
2022/01/09 07:34:48;;;;;;;;;;;;;;;10.68;57.54;99845.38;5058127;28;20328;-82
2022/01/09 07:37:13;;;;;;;;;;;;;;;10.87;57.12;99847.72;5076388;28;19916;-82
2022/01/09 07:39:38;;;;;;;;;;;;;;;10.23;58.40;99849.00;5075992;28;20273;-84
2022/01/09 07:42:05;;;;;;;;;;;;;;;10.19;58.54;99858.28;5076009;28;19998;-83
2022/01/09 07:44:30;;;;;;;;;;;;;;;10.60;58.50;99851.28;5057889;28;19917;-84
2022/01/09 07:46:55;;;;;;;;;;;;;;;9.98;59.63;99855.06;5057887;28;19927;-83
2022/01/09 07:49:22;;;;;;;;;;;;;;;10.68;58.70;99858.88;5057980;28;19924;-83
2022/01/09 07:51:47;;;;;;;;;;;;;;;11.23;56.44;99858.00;5058819;28;19920;-82
2022/01/09 07:54:12;;;;;;;;;;;;;;;11.13;56.90;99862.28;5061092;28;19916;-84
2022/01/09 07:56:39;;;;;;;;;;;;;;;11.07;56.05;99868.09;5059350;28;20431;-84
2022/01/09 07:59:04;;;;;;;;;;;;;;;11.84;54.71;99860.25;5075549;28;19997;-83
2022/01/09 08:01:30;;;;;;;;;;;;;;;11.45;55.37;99868.25;5057287;28;20375;-83
2022/01/09 08:03:56;;;;;;;;;;;;;;;11.01;56.81;99873.94;5057978;28;19920;-84
2022/01/09 08:06:21;;;;;;;;;;;;;;;10.16;59.97;99887.31;5058076;28;20282;-85
2022/01/09 08:08:46;;;;;;;;;;;;;;;9.20;64.88;99882.16;5076040;28;20301;-84
2022/01/09 08:11:11;;;;;;;;;;;;;;;9.57;65.93;99898.91;5059084;28;20427;-83
2022/01/09 08:13:37;;;;;;;;;;;;;;;9.73;64.71;99897.03;5059803;28;19916;-82
2022/01/09 08:16:02;;;;;;;;;;;;;;;10.45;62.31;99899.06;5076385;28;19948;-83
2022/01/09 08:18:27;;;;;;;;;;;;;;;10.15;62.06;99904.50;5075946;28;19916;-84
2022/01/09 08:20:52;;;;;;;;;;;;;;;10.65;60.39;99905.94;5060032;28;19913;-83
2022/01/09 08:23:17;;;;;;;;;;;;;;;10.69;60.61;99910.19;5060390;28;19916;-84
2022/01/09 08:25:43;;;;;;;;;;;;;;;10.83;59.87;99909.31;5059318;28;19917;-85
2022/01/09 08:28:09;;;;;;;;;;;;;;;11.46;57.80;99907.06;5059593;28;19921;-85
2022/01/09 08:30:35;;;;;;;;;;;;;;;10.53;60.46;99915.69;5059664;28;19955;-86
2022/01/09 08:33:01;;;;;;;;;;;;;;;10.25;61.16;99925.47;5059464;28;19916;-85
2022/01/09 08:35:26;;;;;;;;;;;;;;;10.41;59.65;99932.66;5057913;28;19966;-86
2022/01/09 08:37:51;;;;;;;;;;;;;;;10.35;59.32;99930.34;5058635;28;19916;-84
2022/01/09 08:40:21;;;;;;;;;;;;;;;10.20;61.86;99942.94;5058767;28;19923;-84
2022/01/09 08:42:47;;;;;;;;;;;;;;;10.23;61.65;99940.91;5059426;28;19929;-84
2022/01/09 08:45:13;;;;;;;;;;;;;;;9.87;61.90;99943.97;5077400;28;19916;-87
2022/01/09 08:47:38;;;;;;;;;;;;;;;10.28;62.39;99956.84;5063207;28;19916;-85
2022/01/09 08:50:04;;;;;;;;;;;;;;;9.53;65.26;99949.53;5063710;28;19909;-87
2022/01/09 08:52:30;;;;;;;;;;;;;;;9.85;64.97;99949.47;5063425;28;19920;-86
2022/01/09 08:54:55;;;;;;;;;;;;;;;10.14;63.83;99948.72;5061307;28;19960;-85
2022/01/09 08:57:20;;;;;;;;;;;;;;;10.42;63.15;99962.31;5062526;28;19924;-85
2022/01/09 08:59:45;;;;;;;;;;;;;;;10.75;62.01;99963.00;5061439;28;20038;-84
2022/01/09 09:02:10;;;;;;;;;;;;;;;10.53;62.71;99961.66;5060922;28;19928;-85
2022/01/09 09:04:38;;;;;;;;;;;;;;;10.76;61.16;99972.88;5061400;28;19943;-85
2022/01/09 09:07:03;;;;;;;;;;;;;;;10.71;61.36;99973.16;5061428;28;19967;-87
2022/01/09 09:09:28;;;;;;;;;;;;;;;11.12;59.44;99966.09;5060759;28;19917;-83
2022/01/09 09:11:54;;;;;;;;;;;;;;;10.28;60.14;99971.25;5060650;28;19940;-85
2022/01/09 09:14:20;;;;;;;;;;;;;;;10.60;60.63;99981.94;5079876;28;19916;-85
2022/01/09 09:16:46;;;;;;;;;;;;;;;10.61;58.85;99978.28;5079858;28;19922;-84
2022/01/09 09:19:11;;;;;;;;;;;;;;;10.88;60.34;99980.22;5062085;28;20360;-85
2022/01/09 09:21:36;;;;;;;;;;;;;;;10.91;60.21;99984.59;5062446;28;19904;-83
2022/01/09 09:24:01;;;;;;;;;;;;;;;10.94;59.48;99990.66;5061352;28;19924;-84
2022/01/09 09:26:27;;;;;;;;;;;;;;;10.98;59.48;99996.75;5060376;28;19916;-84
2022/01/09 09:28:52;;;;;;;;;;;;;;;10.88;58.90;100012.69;5061951;28;20007;-85
2022/01/09 09:31:17;;;;;;;;;;;;;;;10.40;60.74;100010.22;5061913;28;19959;-85
2022/01/09 09:33:43;;;;;;;;;;;;;;;10.89;59.96;100024.41;5062440;28;20397;-85
2022/01/09 09:36:08;;;;;;;;;;;;;;;11.05;58.83;100018.88;5061813;28;19920;-84
2022/01/09 09:38:34;;;;;;;;;;;;;;;10.88;59.29;100023.50;5078688;28;19923;-82
2022/01/09 09:40:59;;;;;;;;;;;;;;;10.63;59.71;100024.19;5060618;28;19918;-84
2022/01/09 09:43:25;;;;;;;;;;;;;;;10.88;58.82;100031.63;5059779;28;19916;-83
2022/01/09 09:45:53;;;;;;;;;;;;;;;10.40;60.68;100037.25;5060201;28;19916;-82
2022/01/09 09:48:19;;;;;;;;;;;;;;;10.25;60.74;100033.59;5060397;28;19975;-82
2022/01/09 09:50:45;;;;;;;;;;;;;;;10.63;60.38;100033.16;5061240;28;19963;-83
2022/01/09 09:53:10;;;;;;;;;;;;;;;10.63;60.12;100033.16;5061085;28;19932;-83
2022/01/09 09:55:35;;;;;;;;;;;;;;;11.51;57.97;100037.63;5059925;28;19962;-83
2022/01/09 09:58:01;;;;;;;;;;;;;;;11.60;57.44;100037.03;5058988;28;19917;-83
2022/01/09 10:00:26;;;;;;;;;;;;;;;11.43;56.57;100037.22;5059074;28;20066;-83
2022/01/09 10:02:58;;;;;;;;;;;;;;;11.19;57.27;100054.09;5060974;28;20379;-83
2022/01/09 10:05:24;;;;;;;;;;;;;;;11.41;57.03;100050.88;5059683;28;19921;-85
2022/01/09 10:07:55;;;;;;;;;;;;;;;10.94;58.26;100058.31;5060107;28;19970;-85
2022/01/09 10:10:21;;;;;;;;;;;;;;;10.73;58.24;100067.75;5061724;28;19917;-86
2022/01/09 10:12:47;;;;;;;;;;;;;;;10.65;60.85;100062.81;5065111;28;19920;-84
2022/01/09 10:15:14;;;;;;;;;;;;;;;10.11;61.28;100064.16;5061469;28;20294;-85
2022/01/09 10:17:44;;;;;;;;;;;;;;;10.48;59.39;100063.84;5059991;28;19916;-83
2022/01/09 10:20:19;;;;;;;;;;;;;;;10.66;58.95;100060.97;5059264;28;19982;-82
2022/01/09 10:22:46;;;;;;;;;;;;;;;10.48;60.92;100069.25;5059738;28;19985;-83
2022/01/09 10:25:20;;;;;;;;;;;;;;;10.68;58.75;100062.63;5059890;28;19923;-84
2022/01/09 10:27:45;;;;;;;;;;;;;;;10.88;58.38;100063.25;5061080;28;19920;-84
2022/01/09 10:30:11;;;;;;;;;;;;;;;11.10;58.59;100074.50;5060522;28;20270;-83
2022/01/09 10:32:36;;;;;;;;;;;;;;;10.72;58.74;100072.31;5076243;28;20366;-81
2022/01/09 10:35:08;;;;;;;;;;;;;;;11.14;56.95;100084.16;5059168;28;19917;-83
2022/01/09 10:37:35;;;;;;;;;;;;;;;10.17;59.66;100081.81;5060907;28;19919;-83
2022/01/09 10:40:03;;;;;;;;;;;;;;;10.88;58.47;100090.31;5052259;28;19964;-84
2022/01/09 10:42:28;;;;;;;;;;;;;;;10.79;58.06;100078.19;5055955;28;20003;-82
2022/01/09 10:44:53;;;;;;;;;;;;;;;11.24;57.13;100080.88;5040214;28;19956;-82
2022/01/09 10:47:18;;;;;;;;;;;;;;;11.58;55.75;100079.63;5057277;28;19920;-82
2022/01/09 10:49:48;;;;;;;;;;;;;;;11.38;56.41;100090.84;5059299;28;20289;-82
2022/01/09 10:52:25;;;;;;;;;;;;;;;11.56;56.27;100086.94;5058614;28;19917;-80
2022/01/09 10:54:51;;;;;;;;;;;;;;;11.79;55.55;100085.47;5057977;28;20382;-82
2022/01/09 10:57:24;;;;;;;;;;;;;;;11.32;56.40;100097.50;5058269;28;19981;-82
2022/01/09 10:59:49;;;;;;;;;;;;;;;11.31;56.11;100095.78;5058651;28;19917;-83
2022/01/09 11:02:15;;;;;;;;;;;;;;;11.49;55.88;100097.31;5058736;28;19920;-85
2022/01/09 11:04:41;;;;;;;;;;;;;;;12.21;53.38;100090.91;5057573;28;19920;-82
2022/01/09 11:07:07;;;;;;;;;;;;;;;11.60;55.72;100099.34;5055882;28;20386;-81
2022/01/09 11:09:33;;;;;;;;;;;;;;;11.45;55.99;100094.91;5052673;28;19923;-83
2022/01/09 11:11:58;;;;;;;;;;;;;;;12.55;53.95;100092.22;5054793;28;19917;-83
2022/01/09 11:14:27;;;;;;;;;;;;;;;12.94;52.85;100093.16;5055735;28;19947;-83
2022/01/09 11:16:54;;;;;;;;;;;;;;;12.36;53.52;100100.72;5055054;28;19916;-83
2022/01/09 11:19:21;;;;;;;;;;;;;;;12.03;55.02;100101.13;5056237;28;19959;-84
2022/01/09 11:21:52;;;;;;;;;;;;;;;11.63;56.81;100112.69;5057953;28;19921;-83
2022/01/09 11:24:36;;;;;;;;;;;;;;;10.99;57.02;100115.75;5058970;28;19917;-84
2022/01/09 11:27:10;;;;;;;;;;;;;;;11.83;55.60;100115.94;5076297;28;19916;-83
2022/01/09 11:29:54;;;;;;;;;;;;;;;12.22;54.62;100119.78;5058783;28;19976;-84
2022/01/09 11:32:23;;;;;;;;;;;;;;;11.58;55.66;100122.06;5057932;28;19921;-84
2022/01/09 11:34:52;;;;;;;;;;;;;;;11.94;54.99;100124.31;5076739;28;19927;-84
2022/01/09 11:37:21;;;;;;;;;;;;;;;11.90;54.80;100125.44;5058896;28;20329;-84
2022/01/09 11:39:46;;;;;;;;;;;;;;;11.51;55.94;100125.16;5059433;28;19967;-84
2022/01/09 11:42:12;;;;;;;;;;;;;;;11.37;55.96;100129.72;5057564;28;19932;-85
2022/01/09 11:44:48;;;;;;;;;;;;;;;11.65;55.42;100132.41;5072639;28;19928;-85
2022/01/09 11:47:13;;;;;;;;;;;;;;;12.14;54.42;100127.53;5075436;28;19907;-85
2022/01/09 11:49:59;;;;;;;;;;;;;;;12.33;54.55;100130.75;5056598;28;20288;-83
2022/01/09 11:52:26;;;;;;;;;;;;;;;12.16;54.11;100147.31;5053403;28;19920;-83
2022/01/09 11:54:52;;;;;;;;;;;;;;;12.45;53.24;100148.06;5075081;28;19917;-85
2022/01/09 11:57:38;;;;;;;;;;;;;;;13.23;52.53;100133.72;5073406;28;20307;-84
2022/01/09 12:00:05;;;;;;;;;;;;;;;13.80;50.17;100143.28;5049340;28;20424;-83
2022/01/09 12:02:32;;;;;;;;;;;;;;;14.09;49.88;100147.59;5073319;28;19925;-84
2022/01/09 12:04:58;;;;;;;;;;;;;;;14.70;48.19;100147.56;5057028;28;19924;-84
2022/01/09 12:07:32;;;;;;;;;;;;;;;14.17;48.58;100147.88;5054226;28;19920;-84
2022/01/09 12:09:59;;;;;;;;;;;;;;;13.42;50.01;100154.16;5057043;28;19916;-85
2022/01/09 12:12:42;;;;;;;;;;;;;;;12.62;51.39;100165.97;5057303;28;19947;-85
2022/01/09 12:15:09;;;;;;;;;;;;;;;12.14;52.47;100169.09;5057082;28;19935;-82
2022/01/09 12:17:36;;;;;;;;;;;;;;;12.54;52.63;100171.00;5056806;28;19939;-84
2022/01/09 12:20:05;;;;;;;;;;;;;;;12.41;51.98;100169.13;5056682;28;19937;-83
2022/01/09 12:22:44;;;;;;;;;;;;;;;11.75;53.02;100180.63;5057788;28;20054;-82
2022/01/09 12:25:09;;;;;;;;;;;;;;;11.61;54.08;100184.19;5078417;28;20428;-84
2022/01/09 12:27:42;;;;;;;;;;;;;;;11.54;54.39;100175.59;5077721;28;19916;-83
2022/01/09 12:30:07;;;;;;;;;;;;;;;11.80;53.38;100183.91;5059516;28;20281;-87
2022/01/09 12:32:40;;;;;;;;;;;;;;;12.12;52.84;100191.84;5078976;28;19931;-85
2022/01/09 12:35:19;;;;;;;;;;;;;;;12.62;51.59;100184.94;5060701;28;19932;-83
2022/01/09 12:37:48;;;;;;;;;;;;;;;12.05;52.58;100197.66;5060950;28;19927;-84
2022/01/09 12:40:17;;;;;;;;;;;;;;;11.64;53.80;100201.13;5058426;28;19917;-82
2022/01/09 12:42:46;;;;;;;;;;;;;;;12.16;52.81;100206.94;5060639;28;19959;-84
2022/01/09 12:45:12;;;;;;;;;;;;;;;11.91;53.10;100213.91;5057532;28;19916;-84